Time;durP1;ratioP1;P1;durP2;ratioP2;P2;SDS_P1;SDS_P2;PMS_P1;PMS_P2;Temp;Humidity;BMP_temperature;BMP_pressure;BME280_temperature;BME280_humidity;BME280_pressure;Samples;Min_cycle;Max_cycle;Signal;HPM_P1;HPM_P2
2022/11/27 00:00:10;;;;;;;11.37;8.27;;;6.70;77.00;6.30;97626.00;;;;5051159;28;20276;-85
2022/11/27 00:02:37;;;;;;;11.53;7.57;;;6.60;76.90;6.30;97632.00;;;;5057532;28;20205;-84
2022/11/27 00:05:06;;;;;;;24.77;9.37;;;6.70;77.00;6.30;97626.00;;;;5055569;28;20232;-85
2022/11/27 00:07:33;;;;;;;19.83;7.87;;;6.60;77.00;6.30;97621.00;;;;5047302;28;20231;-84
2022/11/27 00:10:01;;;;;;;12.40;7.53;;;6.60;77.00;6.30;97623.00;;;;5064240;28;20217;-85
2022/11/27 00:12:28;;;;;;;14.50;7.33;;;6.60;76.90;6.30;97622.00;;;;5057420;28;20231;-85
2022/11/27 00:14:56;;;;;;;17.37;8.13;;;6.60;76.90;6.30;97618.00;;;;5057625;28;20196;-85
2022/11/27 00:17:24;;;;;;;17.57;8.00;;;6.60;76.90;6.30;97630.00;;;;5050885;28;20708;-85
2022/11/27 00:19:51;;;;;;;14.43;6.83;;;6.60;76.80;6.30;97629.00;;;;5057644;28;20231;-85
2022/11/27 00:22:18;;;;;;;15.73;6.90;;;6.60;76.70;6.20;97620.00;;;;5057725;28;20200;-85
2022/11/27 00:24:45;;;;;;;18.53;7.60;;;6.60;76.80;6.20;97618.00;;;;5060762;28;20209;-84
2022/11/27 00:27:12;;;;;;;27.07;8.63;;;6.60;76.90;6.20;97615.00;;;;5058940;28;20258;-85
2022/11/27 00:29:40;;;;;;;22.47;7.83;;;6.60;77.00;6.20;97616.00;;;;5056725;28;20270;-84
2022/11/27 00:32:08;;;;;;;41.00;8.77;;;6.50;76.80;6.20;97616.00;;;;5057928;28;20654;-84
2022/11/27 00:34:36;;;;;;;17.27;7.17;;;6.50;76.70;6.10;97599.00;;;;5057521;28;20228;-85
2022/11/27 00:37:03;;;;;;;60.10;9.87;;;6.50;76.60;6.10;97605.00;;;;5057019;28;20233;-85
2022/11/27 00:39:31;;;;;;;36.70;8.50;;;6.50;76.70;6.10;97603.00;;;;5059531;28;20224;-85
2022/11/27 00:41:58;;;;;;;14.83;6.90;;;6.50;76.50;6.10;97608.00;;;;5064711;28;20236;-84
2022/11/27 00:44:25;;;;;;;13.80;6.43;;;6.40;76.40;6.00;97597.00;;;;5057145;28;20243;-85
2022/11/27 00:46:52;;;;;;;16.87;7.40;;;6.40;76.50;6.00;97594.00;;;;5057497;28;20294;-84
2022/11/27 00:49:21;;;;;;;24.63;7.67;;;6.40;76.60;6.00;97590.00;;;;5055632;28;20753;-85
2022/11/27 00:51:48;;;;;;;9.60;6.47;;;6.40;76.50;6.00;97580.00;;;;5057760;28;20536;-84
2022/11/27 00:54:15;;;;;;;6.83;6.23;;;6.40;76.50;6.00;97584.00;;;;5058400;28;20212;-85
2022/11/27 00:56:42;;;;;;;6.77;6.17;;;6.40;76.50;6.00;97581.00;;;;5056169;28;20212;-84
2022/11/27 00:59:10;;;;;;;7.37;6.57;;;6.30;76.30;5.90;97588.00;;;;5056805;28;20604;-84
2022/11/27 01:01:41;;;;;;;10.60;6.57;;;6.30;76.30;5.90;97579.00;;;;5055778;28;20322;-84
2022/11/27 01:04:12;;;;;;;9.87;6.37;;;6.30;76.30;5.90;97577.00;;;;5056575;28;20283;-85
2022/11/27 01:06:42;;;;;;;9.37;6.13;;;6.30;76.30;5.90;97569.00;;;;5056592;28;20739;-85
2022/11/27 01:09:11;;;;;;;12.27;5.97;;;6.30;76.20;5.90;97580.00;;;;5056154;28;20333;-84
2022/11/27 01:11:40;;;;;;;16.83;6.83;;;6.30;76.20;5.80;97570.00;;;;5050887;28;20291;-85
2022/11/27 01:14:13;;;;;;;16.17;5.83;;;6.20;76.30;5.80;97562.00;;;;5057993;28;20244;-84
2022/11/27 01:16:40;;;;;;;10.07;6.17;;;6.20;76.30;5.80;97561.00;;;;5056510;28;20229;-84
2022/11/27 01:19:09;;;;;;;10.50;5.93;;;6.20;76.50;5.80;97568.00;;;;5050187;28;20704;-85
2022/11/27 01:21:36;;;;;;;13.53;6.30;;;6.20;76.70;5.80;97568.00;;;;5057273;28;20212;-84
2022/11/27 01:24:07;;;;;;;13.57;6.13;;;6.20;76.80;5.80;97567.00;;;;5056601;28;20329;-85
2022/11/27 01:26:34;;;;;;;19.90;6.27;;;6.20;76.90;5.80;97551.00;;;;5056625;28;20247;-85
2022/11/27 01:29:01;;;;;;;16.53;6.27;;;6.10;76.70;5.70;97552.00;;;;5056752;28;20228;-85
2022/11/27 01:31:32;;;;;;;19.27;7.20;;;6.10;76.70;5.70;97549.00;;;;5057346;28;20223;-84
2022/11/27 01:34:03;;;;;;;14.97;6.00;;;6.10;76.70;5.70;97546.00;;;;5057132;28;20649;-84
2022/11/27 01:36:32;;;;;;;26.13;7.27;;;6.10;76.70;5.70;97551.00;;;;5065530;28;20252;-84
2022/11/27 01:38:59;;;;;;;33.73;6.47;;;6.10;76.90;5.70;97546.00;;;;5054835;28;20209;-84
2022/11/27 01:41:32;;;;;;;26.80;6.40;;;6.10;76.90;5.70;97551.00;;;;5060187;28;20303;-85
2022/11/27 01:44:02;;;;;;;18.20;5.80;;;6.10;76.90;5.70;97552.00;;;;5052877;28;20221;-85
2022/11/27 01:46:37;;;;;;;33.60;7.03;;;6.10;76.90;5.70;97555.00;;;;5058121;28;20255;-85
2022/11/27 01:49:29;;;;;;;16.17;5.63;;;6.10;76.90;5.70;97559.00;;;;5058041;28;20204;-84
2022/11/27 01:52:02;;;;;;;6.60;5.17;;;6.10;76.80;5.70;97555.00;;;;5049884;28;20201;-84
2022/11/27 01:54:37;;;;;;;5.40;4.90;;;6.10;77.00;5.70;97562.00;;;;5055391;28;20208;-85
2022/11/27 01:57:13;;;;;;;11.10;5.47;;;6.00;77.10;5.70;97560.00;;;;5055573;28;20307;-85
2022/11/27 01:59:41;;;;;;;9.73;5.07;;;6.00;77.20;5.70;97549.00;;;;5050667;28;20272;-85
2022/11/27 02:02:08;;;;;;;6.03;5.27;;;6.00;77.30;5.70;97556.00;;;;5050462;28;20246;-85
2022/11/27 02:04:35;;;;;;;5.53;4.70;;;6.00;77.30;5.70;97555.00;;;;5050667;28;20936;-85
2022/11/27 02:07:03;;;;;;;8.53;4.73;;;6.10;77.40;5.70;97544.00;;;;5049188;28;20311;-85
2022/11/27 02:09:31;;;;;;;8.40;4.67;;;6.10;77.30;5.70;97533.00;;;;5047449;28;20311;-85
2022/11/27 02:12:11;;;;;;;31.17;6.33;;;6.10;77.30;5.70;97532.00;;;;5043812;28;20255;-84
2022/11/27 02:14:50;;;;;;;21.07;5.30;;;6.10;77.30;5.70;97527.00;;;;5044261;28;20287;-85
2022/11/27 02:17:24;;;;;;;4.00;3.70;;;6.10;77.30;5.70;97527.00;;;;5049297;28;20578;-85
2022/11/27 02:20:24;;;;;;;7.70;4.10;;;6.10;77.30;5.70;97529.00;;;;5048798;28;20195;-85
2022/11/27 02:23:12;;;;;;;5.47;4.20;;;6.10;77.30;5.70;97524.00;;;;5047704;28;20201;-85
2022/11/27 02:25:57;;;;;;;10.10;4.57;;;6.10;77.30;5.70;97521.00;;;;5049785;28;20312;-84
2022/11/27 02:28:53;;;;;;;14.77;5.03;;;6.10;77.30;5.70;97528.00;;;;5047852;28;20204;-84
2022/11/27 02:31:32;;;;;;;10.83;4.83;;;6.10;77.40;5.70;97514.00;;;;5048239;28;20228;-85
2022/11/27 02:34:15;;;;;;;5.43;4.40;;;6.10;77.40;5.70;97515.00;;;;5049586;28;20220;-85
2022/11/27 02:36:54;;;;;;;4.73;4.33;;;6.10;77.30;5.70;97513.00;;;;5047618;28;20240;-85
2022/11/27 02:39:31;;;;;;;7.50;3.53;;;6.10;77.40;5.70;97516.00;;;;5050388;28;20204;-85
2022/11/27 02:42:07;;;;;;;6.27;3.93;;;6.10;77.30;5.70;97511.00;;;;5048062;28;20204;-85
2022/11/27 02:44:43;;;;;;;7.97;3.70;;;6.10;77.30;5.70;97497.00;;;;5049346;28;20211;-85
2022/11/27 02:47:13;;;;;;;5.17;3.70;;;6.10;77.30;5.70;97488.00;;;;5044342;28;20232;-85
2022/11/27 02:49:48;;;;;;;7.37;3.50;;;6.10;77.30;5.70;97482.00;;;;5049353;28;20220;-85
2022/11/27 02:52:19;;;;;;;7.93;3.37;;;5.20;76.70;5.70;97474.00;;;;5041980;28;20192;-85
2022/11/27 02:54:50;;;;;;;6.47;3.70;;;6.10;77.20;5.70;97464.00;;;;5049672;28;20719;-85
2022/11/27 02:57:20;;;;;;;10.23;3.53;;;6.00;77.10;5.60;97472.00;;;;5048515;28;20282;-84
2022/11/27 02:59:53;;;;;;;4.63;3.50;;;6.00;76.90;5.60;97477.00;;;;5046851;28;20296;-85
2022/11/27 03:02:26;;;;;;;10.77;3.90;;;6.00;77.00;5.60;97469.00;;;;5047089;28;20197;-85
2022/11/27 03:04:59;;;;;;;8.00;3.80;;;6.00;77.10;5.60;97462.00;;;;5045362;28;20283;-85
2022/11/27 03:07:37;;;;;;;7.47;3.83;;;6.00;77.10;5.60;97459.00;;;;5041174;28;20243;-85
2022/11/27 03:10:12;;;;;;;9.53;3.73;;;5.90;77.20;5.60;97463.00;;;;5048425;28;20256;-85
2022/11/27 03:12:39;;;;;;;8.23;3.97;;;5.90;77.20;5.50;97464.00;;;;5047418;28;20200;-85
2022/11/27 03:15:10;;;;;;;3.57;3.13;;;5.90;77.10;5.50;97462.00;;;;5038740;28;20224;-85
2022/11/27 03:17:51;;;;;;;6.87;3.83;;;5.90;77.20;5.50;97456.00;;;;5039846;28;20204;-84
2022/11/27 03:20:25;;;;;;;9.07;3.53;;;5.90;77.20;5.50;97456.00;;;;5037341;28;20296;-85
2022/11/27 03:22:54;;;;;;;10.00;3.57;;;5.90;77.20;5.50;97459.00;;;;5048367;28;20654;-85
2022/11/27 03:25:22;;;;;;;12.87;4.13;;;5.90;77.20;5.40;97453.00;;;;5048079;28;20262;-85
2022/11/27 03:27:58;;;;;;;3.50;3.30;;;5.80;77.30;5.40;97454.00;;;;5047572;28;20201;-85
2022/11/27 03:30:26;;;;;;;4.60;3.57;;;5.80;77.20;5.40;97447.00;;;;5050908;28;20247;-84
2022/11/27 03:32:54;;;;;;;4.23;3.77;;;5.80;77.30;5.40;97450.00;;;;5052233;28;20215;-84
2022/11/27 03:35:25;;;;;;;3.77;3.37;;;5.80;77.30;5.40;97441.00;;;;5051944;28;20684;-84
2022/11/27 03:37:54;;;;;;;5.27;3.43;;;5.80;77.30;5.40;97445.00;;;;5050496;28;20231;-84
2022/11/27 03:40:33;;;;;;;3.70;3.40;;;5.80;77.30;5.40;97440.00;;;;5050328;28;20695;-85
2022/11/27 03:43:09;;;;;;;3.90;3.50;;;5.80;77.30;5.40;97444.00;;;;5049937;28;20300;-84
2022/11/27 03:45:52;;;;;;;5.37;3.60;;;5.80;77.40;5.40;97437.00;;;;5040352;28;20255;-84
2022/11/27 03:48:33;;;;;;;4.83;3.33;;;5.70;77.50;5.40;97423.00;;;;5046929;28;20284;-84
2022/11/27 03:51:11;;;;;;;3.00;2.80;;;5.80;77.60;5.40;97433.00;;;;5046450;28;20606;-84
2022/11/27 03:53:52;;;;;;;6.00;3.70;;;5.70;77.60;5.40;97435.00;;;;5047238;28;20201;-84
2022/11/27 03:56:35;;;;;;;13.20;3.57;;;5.70;77.60;5.40;97432.00;;;;5039274;28;20575;-84
2022/11/27 03:59:10;;;;;;;4.70;3.20;;;5.70;77.60;5.40;97428.00;;;;5049725;28;20220;-84
2022/11/27 04:01:40;;;;;;;8.03;3.33;;;5.70;77.50;5.40;97423.00;;;;5046170;28;20291;-84
2022/11/27 04:04:08;;;;;;;10.30;3.70;;;5.70;77.50;5.30;97427.00;;;;5045054;28;20620;-84
2022/11/27 04:06:35;;;;;;;7.70;3.40;;;5.70;77.20;5.30;97436.00;;;;5047692;28;20299;-84
2022/11/27 04:09:02;;;;;;;9.40;3.10;;;5.70;77.20;5.30;97440.00;;;;5047631;28;20203;-84
2022/11/27 04:11:29;;;;;;;4.83;3.17;;;5.70;77.10;5.30;97437.00;;;;5036621;28;20316;-84
2022/11/27 04:13:57;;;;;;;7.10;2.77;;;5.70;77.20;5.30;97440.00;;;;5045201;28;20201;-85
2022/11/27 04:16:24;;;;;;;7.47;3.07;;;5.70;77.20;5.30;97442.00;;;;5043350;28;20240;-85
2022/11/27 04:18:53;;;;;;;6.07;3.20;;;5.70;77.30;5.30;97438.00;;;;5046810;28;20248;-85
2022/11/27 04:21:20;;;;;;;10.77;2.77;;;5.70;77.10;5.30;97427.00;;;;5048706;28;20296;-85
2022/11/27 04:23:47;;;;;;;8.30;3.37;;;5.70;77.00;5.20;97420.00;;;;5049593;28;20288;-85
2022/11/27 04:26:15;;;;;;;6.27;3.10;;;5.60;76.70;5.20;97424.00;;;;5048744;28;20309;-85
2022/11/27 04:28:42;;;;;;;5.30;2.80;;;5.60;76.60;5.20;97429.00;;;;5048831;28;20331;-85
2022/11/27 04:31:10;;;;;;;2.97;2.77;;;5.60;76.50;5.20;97425.00;;;;5049859;28;20237;-85
2022/11/27 04:33:37;;;;;;;3.60;2.53;;;5.60;76.60;5.20;97431.00;;;;5045887;28;20276;-85
2022/11/27 04:36:07;;;;;;;3.87;3.03;;;5.60;76.80;5.20;97421.00;;;;5047805;28;21087;-85
2022/11/27 04:38:34;;;;;;;5.73;2.43;;;5.60;77.00;5.20;97419.00;;;;5048115;28;20293;-83
2022/11/27 04:41:01;;;;;;;3.83;2.43;;;5.60;77.10;5.20;97416.00;;;;5043513;28;20234;-85
2022/11/27 04:43:28;;;;;;;2.80;2.60;;;5.60;77.00;5.20;97420.00;;;;5044212;28;20292;-85
2022/11/27 04:45:56;;;;;;;3.97;2.87;;;5.60;77.00;5.20;97415.00;;;;5043768;28;20300;-85
2022/11/27 04:48:23;;;;;;;3.63;2.77;;;5.60;77.10;5.20;97414.00;;;;5050969;28;20259;-86
2022/11/27 04:50:50;;;;;;;10.37;3.07;;;5.60;77.40;5.20;97414.00;;;;5052176;28;20256;-85
2022/11/27 04:53:19;;;;;;;4.17;2.80;;;5.60;77.40;5.30;97411.00;;;;5051328;28;20295;-85
2022/11/27 04:55:46;;;;;;;8.13;3.27;;;5.60;77.40;5.30;97420.00;;;;5040910;28;20305;-85
2022/11/27 04:58:13;;;;;;;13.37;3.87;;;5.60;77.50;5.30;97419.00;;;;5045794;28;20200;-85
2022/11/27 05:00:40;;;;;;;4.23;2.80;;;5.60;77.60;5.30;97420.00;;;;5044208;28;20324;-85
2022/11/27 05:03:08;;;;;;;5.10;3.07;;;5.60;77.60;5.40;97423.00;;;;5050668;28;20291;-85
2022/11/27 05:05:35;;;;;;;18.53;4.10;;;5.60;77.80;5.40;97428.00;;;;5047767;28;20242;-85
2022/11/27 05:08:02;;;;;;;11.17;3.03;;;5.70;78.00;5.40;97425.00;;;;5048032;28;20201;-86
2022/11/27 05:10:31;;;;;;;9.13;3.30;;;5.70;78.00;5.50;97421.00;;;;5041064;28;20251;-85
2022/11/27 05:13:00;;;;;;;9.37;3.03;;;5.80;78.30;5.50;97432.00;;;;5046527;28;20283;-85
2022/11/27 05:15:27;;;;;;;9.83;3.13;;;5.80;79.10;5.50;97428.00;;;;5045210;28;20649;-85
2022/11/27 05:17:54;;;;;;;2.73;2.37;;;5.80;78.50;5.50;97433.00;;;;5043763;28;20282;-85
2022/11/27 05:20:21;;;;;;;2.80;2.60;;;5.80;78.60;5.60;97425.00;;;;5044567;28;20211;-86
2022/11/27 05:22:49;;;;;;;4.87;2.83;;;5.90;78.70;5.60;97431.00;;;;5045402;28;20303;-86
2022/11/27 05:25:16;;;;;;;21.10;3.60;;;5.90;78.70;5.70;97423.00;;;;5041959;28;20247;-85
2022/11/27 05:27:45;;;;;;;19.43;3.70;;;5.90;78.60;5.70;97425.00;;;;5037569;28;20258;-85
2022/11/27 05:30:13;;;;;;;5.10;2.97;;;6.00;78.50;5.70;97427.00;;;;5041714;28;20693;-86
2022/11/27 05:32:40;;;;;;;10.87;2.97;;;6.00;78.50;5.70;97427.00;;;;5045185;28;20215;-85
2022/11/27 05:35:08;;;;;;;7.60;2.50;;;6.00;78.40;5.70;97437.00;;;;5042826;28;20224;-84
2022/11/27 05:37:35;;;;;;;8.63;2.70;;;6.00;78.50;5.70;97438.00;;;;5046620;28;20246;-85
2022/11/27 05:40:03;;;;;;;3.17;2.30;;;6.00;78.60;5.80;97432.00;;;;5045636;28;20320;-85
2022/11/27 05:42:30;;;;;;;2.47;2.33;;;6.00;78.50;5.80;97448.00;;;;5046892;28;20665;-84
2022/11/27 05:44:58;;;;;;;6.93;2.90;;;6.10;78.60;5.80;97437.00;;;;5039574;28;20209;-84
2022/11/27 05:47:26;;;;;;;8.47;2.70;;;6.10;78.60;5.80;97435.00;;;;5043233;28;20252;-85
2022/11/27 05:49:53;;;;;;;5.50;3.20;;;6.10;78.60;5.80;97424.00;;;;5037471;28;20470;-86
2022/11/27 05:52:20;;;;;;;11.50;2.80;;;6.10;78.60;5.80;97430.00;;;;5044265;28;20256;-86
2022/11/27 05:54:47;;;;;;;4.27;2.63;;;6.20;78.70;5.90;97416.00;;;;5044292;28;20296;-85
2022/11/27 05:57:15;;;;;;;3.67;2.60;;;6.20;78.60;5.90;97417.00;;;;5045714;28;20267;-85
2022/11/27 05:59:42;;;;;;;2.80;2.47;;;6.20;78.70;5.90;97411.00;;;;5042515;28;20197;-85
2022/11/27 06:02:10;;;;;;;8.40;3.00;;;6.20;78.70;5.90;97409.00;;;;5045359;28;20294;-85
2022/11/27 06:04:37;;;;;;;5.53;3.00;;;6.20;78.70;5.90;97412.00;;;;5044944;28;20235;-86
2022/11/27 06:07:05;;;;;;;5.43;2.80;;;6.20;78.60;5.90;97410.00;;;;5043262;28;20235;-85
2022/11/27 06:09:32;;;;;;;6.27;2.83;;;6.20;78.50;5.90;97408.00;;;;5046095;28;20279;-85
2022/11/27 06:11:59;;;;;;;3.43;2.80;;;6.20;78.50;5.90;97400.00;;;;5041401;28;20232;-85
2022/11/27 06:14:27;;;;;;;6.10;2.93;;;6.30;78.40;6.00;97398.00;;;;5043897;28;20291;-85
2022/11/27 06:16:54;;;;;;;6.33;2.60;;;6.30;78.50;6.00;97397.00;;;;5045681;28;20813;-85
2022/11/27 06:19:23;;;;;;;5.70;2.40;;;6.30;78.50;6.00;97402.00;;;;5039679;28;20228;-86
2022/11/27 06:21:50;;;;;;;5.07;2.40;;;6.30;78.30;5.90;97398.00;;;;5041505;28;20677;-86
2022/11/27 06:24:17;;;;;;;5.93;2.47;;;6.30;78.30;5.90;97399.00;;;;5045860;28;20662;-86
2022/11/27 06:26:44;;;;;;;2.40;2.30;;;6.30;78.10;6.00;97407.00;;;;5046189;28;20248;-86
2022/11/27 06:29:13;;;;;;;7.07;2.70;;;6.30;78.00;6.00;97410.00;;;;5045268;28;20284;-86
2022/11/27 06:31:41;;;;;;;3.67;2.50;;;6.30;78.10;6.00;97417.00;;;;5040013;28;20689;-85
2022/11/27 06:34:08;;;;;;;4.50;2.93;;;6.30;78.10;5.90;97408.00;;;;5043237;28;20242;-85
2022/11/27 06:36:39;;;;;;;4.13;2.20;;;6.30;78.00;5.90;97416.00;;;;5045063;28;20217;-85
2022/11/27 06:39:13;;;;;;;5.07;2.80;;;6.30;78.10;5.90;97420.00;;;;5043827;28;20205;-85
2022/11/27 06:41:40;;;;;;;3.27;2.40;;;6.30;78.10;5.90;97417.00;;;;5040775;28;20204;-86
2022/11/27 06:44:07;;;;;;;9.10;2.90;;;6.30;78.10;5.90;97417.00;;;;5038159;28;20262;-86
2022/11/27 06:46:34;;;;;;;11.40;2.70;;;6.20;78.10;5.90;97409.00;;;;5043604;28;20753;-85
2022/11/27 06:49:02;;;;;;;8.60;2.70;;;6.20;78.00;5.90;97405.00;;;;5045771;28;20642;-86
2022/11/27 06:51:31;;;;;;;3.30;2.20;;;6.20;77.90;5.90;97417.00;;;;5044879;28;20325;-86
2022/11/27 06:54:02;;;;;;;2.77;2.57;;;6.20;77.80;5.90;97420.00;;;;5041256;28;20208;-86
2022/11/27 06:56:32;;;;;;;6.63;2.80;;;6.20;77.90;5.90;97426.00;;;;5045730;28;20256;-86
2022/11/27 06:59:01;;;;;;;6.77;2.83;;;6.30;78.00;5.90;97427.00;;;;5041465;28;20209;-86
2022/11/27 07:01:31;;;;;;;2.47;2.37;;;6.20;78.00;5.90;97419.00;;;;5035670;28;20283;-90
2022/11/27 07:03:58;;;;;;;3.07;2.50;;;6.20;78.00;6.00;97425.00;;;;5044753;28;20201;-89
2022/11/27 07:06:28;;;;;;;7.47;2.80;;;6.20;78.10;6.00;97415.00;;;;5051235;28;20224;-89
2022/11/27 07:08:56;;;;;;;2.17;2.07;;;6.30;78.30;6.10;97420.00;;;;5053601;28;20555;-90
2022/11/27 07:11:28;;;;;;;3.73;2.17;;;6.30;78.30;6.10;97414.00;;;;5052484;28;20286;-89
2022/11/27 07:13:58;;;;;;;5.20;3.10;;;6.30;78.30;6.20;97422.00;;;;5053015;28;20188;-89
2022/11/27 07:16:27;;;;;;;8.50;2.73;;;6.30;78.30;6.20;97415.00;;;;5052786;28;20220;-89
2022/11/27 07:18:59;;;;;;;5.57;2.43;;;6.30;78.20;6.30;97423.00;;;;5052402;28;20200;-86
2022/11/27 07:21:27;;;;;;;5.87;2.50;;;6.40;78.20;6.30;97422.00;;;;5052203;28;20220;-86
2022/11/27 07:23:56;;;;;;;3.50;2.90;;;6.40;78.10;6.30;97427.00;;;;5052431;28;20450;-85
2022/11/27 07:26:28;;;;;;;6.37;2.87;;;6.40;78.10;6.40;97426.00;;;;5052197;28;20316;-87
2022/11/27 07:28:56;;;;;;;3.03;2.50;;;6.40;78.00;6.40;97430.00;;;;5051718;28;20196;-86
2022/11/27 07:31:27;;;;;;;3.10;2.40;;;6.50;78.00;6.40;97428.00;;;;5052130;28;20255;-86
2022/11/27 07:33:56;;;;;;;2.97;2.70;;;6.50;78.20;6.40;97427.00;;;;5052382;28;20201;-87
2022/11/27 07:36:26;;;;;;;3.03;2.67;;;6.50;78.20;6.50;97425.00;;;;5051673;28;20221;-87
2022/11/27 07:38:53;;;;;;;2.80;2.60;;;6.50;78.10;6.50;97426.00;;;;5050187;28;20201;-85
2022/11/27 07:41:21;;;;;;;3.70;2.53;;;6.60;78.10;6.50;97417.00;;;;5048524;28;20232;-85
2022/11/27 07:43:50;;;;;;;3.70;2.30;;;6.60;78.10;6.60;97423.00;;;;5044389;28;20251;-85
2022/11/27 07:46:20;;;;;;;4.17;2.60;;;6.60;78.10;6.60;97412.00;;;;5050574;28;20255;-85
2022/11/27 07:48:48;;;;;;;3.83;2.63;;;6.60;78.10;6.60;97409.00;;;;5047980;28;20658;-85
2022/11/27 07:51:18;;;;;;;2.97;2.53;;;6.60;78.00;6.60;97408.00;;;;5045065;28;20298;-85
2022/11/27 07:53:46;;;;;;;10.10;2.87;;;6.70;78.10;6.70;97404.00;;;;5041102;28;20288;-85
2022/11/27 07:56:15;;;;;;;4.27;2.47;;;6.70;78.00;6.70;97395.00;;;;5034377;28;20304;-85
2022/11/27 07:58:43;;;;;;;2.37;2.17;;;6.70;77.90;6.70;97402.00;;;;5039195;28;20726;-84
2022/11/27 08:01:15;;;;;;;2.43;2.23;;;6.70;77.90;6.70;97383.00;;;;5049415;28;20225;-87
2022/11/27 08:03:44;;;;;;;3.63;2.37;;;6.80;77.90;6.70;97381.00;;;;5051411;28;20195;-88
2022/11/27 08:06:17;;;;;;;3.00;1.90;;;6.80;77.90;6.80;97389.00;;;;5051311;28;20217;-87
2022/11/27 08:08:45;;;;;;;4.53;2.03;;;6.80;77.80;6.80;97386.00;;;;5051999;28;20255;-87
2022/11/27 08:11:21;;;;;;;3.00;2.07;;;6.80;77.80;6.80;97380.00;;;;5053346;28;20201;-87
2022/11/27 08:13:49;;;;;;;2.97;2.77;;;6.80;77.70;6.80;97386.00;;;;5052529;28;20212;-87
2022/11/27 08:16:17;;;;;;;6.53;2.10;;;6.80;77.70;6.80;97383.00;;;;5054431;28;20589;-87
2022/11/27 08:18:44;;;;;;;2.60;2.40;;;6.90;77.60;6.80;97379.00;;;;5055758;28;20223;-86
2022/11/27 08:21:12;;;;;;;1.97;1.83;;;6.90;77.60;6.80;97369.00;;;;5055496;28;20417;-87
2022/11/27 08:23:39;;;;;;;2.67;2.40;;;6.90;77.60;6.80;97374.00;;;;5056138;28;20205;-86
2022/11/27 08:26:08;;;;;;;7.37;2.77;;;6.90;77.60;6.80;97368.00;;;;5055237;28;20693;-87
2022/11/27 08:28:36;;;;;;;3.73;2.00;;;6.90;77.50;6.80;97363.00;;;;5055059;28;20209;-86
2022/11/27 08:31:06;;;;;;;2.23;2.03;;;6.90;77.30;6.80;97363.00;;;;5055289;28;20291;-86
2022/11/27 08:33:35;;;;;;;4.10;2.10;;;6.90;77.30;6.80;97359.00;;;;5054664;28;20228;-86
2022/11/27 08:36:03;;;;;;;3.20;2.10;;;6.90;77.30;6.80;97361.00;;;;5055254;28;20287;-86
2022/11/27 08:38:30;;;;;;;6.87;2.43;;;6.90;77.40;6.80;97363.00;;;;5055298;28;20200;-87
2022/11/27 08:41:00;;;;;;;8.80;2.43;;;6.90;77.40;6.80;97361.00;;;;5055141;28;20236;-86
2022/11/27 08:43:29;;;;;;;4.90;2.23;;;6.90;77.30;6.80;97363.00;;;;5054822;28;20211;-86
2022/11/27 08:45:57;;;;;;;2.30;2.10;;;6.90;77.30;6.80;97359.00;;;;5054577;28;20311;-86
2022/11/27 08:48:25;;;;;;;7.33;2.67;;;6.90;77.20;6.80;97360.00;;;;5054935;28;20196;-86
2022/11/27 08:50:54;;;;;;;2.27;2.07;;;6.90;77.20;6.90;97370.00;;;;5054574;28;20224;-86
2022/11/27 08:53:21;;;;;;;4.70;2.70;;;6.90;77.10;6.90;97363.00;;;;5054250;28;20256;-87
2022/11/27 08:55:48;;;;;;;5.37;2.90;;;6.90;77.10;6.90;97365.00;;;;5054374;28;20290;-86
2022/11/27 08:58:16;;;;;;;3.17;2.33;;;6.90;77.20;6.90;97373.00;;;;5054807;28;20695;-86
2022/11/27 09:00:44;;;;;;;5.20;2.43;;;6.90;77.20;6.90;97364.00;;;;5055154;28;20745;-86
2022/11/27 09:03:12;;;;;;;3.70;2.63;;;7.00;77.30;6.90;97356.00;;;;5055134;28;20205;-86
2022/11/27 09:05:43;;;;;;;11.50;2.80;;;7.00;77.20;6.90;97363.00;;;;5054804;28;20219;-87
2022/11/27 09:08:18;;;;;;;3.23;2.50;;;7.00;77.20;7.00;97365.00;;;;5055026;28;20253;-88
2022/11/27 09:10:46;;;;;;;2.27;2.17;;;7.00;77.00;7.00;97365.00;;;;5055011;28;20184;-89
2022/11/27 09:13:13;;;;;;;2.60;2.40;;;7.00;77.00;7.00;97356.00;;;;5054428;28;20263;-88
2022/11/27 09:15:40;;;;;;;2.40;2.30;;;7.00;77.00;7.00;97353.00;;;;5054197;28;20270;-88
2022/11/27 09:18:07;;;;;;;2.43;2.27;;;7.00;77.20;7.00;97359.00;;;;5048493;28;20636;-88
2022/11/27 09:20:34;;;;;;;5.77;2.77;;;7.00;77.20;7.00;97352.00;;;;5054366;28;20691;-87
2022/11/27 09:23:02;;;;;;;2.87;2.67;;;7.00;77.20;7.00;97357.00;;;;5054378;28;20201;-88
2022/11/27 09:25:30;;;;;;;2.40;2.20;;;7.10;77.20;7.00;97353.00;;;;5054660;28;20256;-88
2022/11/27 09:27:58;;;;;;;3.57;3.27;;;7.10;77.10;7.00;97355.00;;;;5054461;28;20204;-88
2022/11/27 09:30:25;;;;;;;3.50;2.60;;;7.10;77.20;7.00;97362.00;;;;5053967;28;20204;-88
2022/11/27 09:32:53;;;;;;;3.20;2.40;;;7.10;77.00;7.10;97354.00;;;;5053957;28;20278;-88
2022/11/27 09:35:20;;;;;;;2.53;2.20;;;7.10;77.10;7.10;97354.00;;;;5053900;28;20287;-88
2022/11/27 09:37:47;;;;;;;2.63;2.43;;;7.10;77.30;7.10;97343.00;;;;5054181;28;20193;-88
2022/11/27 09:40:17;;;;;;;3.60;3.00;;;7.10;77.20;7.10;97340.00;;;;5053844;28;20291;-88
2022/11/27 09:42:55;;;;;;;3.33;3.13;;;7.20;77.30;7.20;97342.00;;;;5054229;28;20204;-87
2022/11/27 09:45:26;;;;;;;4.63;2.90;;;7.20;77.30;7.20;97333.00;;;;5054096;28;20637;-88
2022/11/27 09:47:59;;;;;;;4.40;3.10;;;7.20;77.40;7.20;97332.00;;;;5053884;28;20181;-89
2022/11/27 09:50:32;;;;;;;3.10;2.87;;;7.20;77.40;7.20;97332.00;;;;5053969;28;20235;-89
2022/11/27 09:53:06;;;;;;;3.10;2.90;;;7.20;77.30;7.20;97329.00;;;;5054086;28;20643;-88
2022/11/27 09:55:40;;;;;;;3.40;2.97;;;7.30;77.30;7.20;97313.00;;;;5053924;28;20306;-89
2022/11/27 09:58:17;;;;;;;2.97;2.77;;;7.30;77.30;7.20;97317.00;;;;5046285;28;20180;-88
2022/11/27 10:00:45;;;;;;;3.27;2.87;;;7.30;77.10;7.20;97320.00;;;;5053974;28;20652;-88
2022/11/27 10:03:15;;;;;;;2.63;2.43;;;7.30;77.00;7.20;97315.00;;;;5053814;28;20258;-88
2022/11/27 10:06:02;;;;;;;3.77;3.47;;;7.30;76.80;7.20;97313.00;;;;5053478;28;20307;-88
2022/11/27 10:08:45;;;;;;;3.80;3.00;;;7.30;76.80;7.20;97309.00;;;;5053744;28;20200;-88
2022/11/27 10:11:28;;;;;;;3.40;3.07;;;7.30;76.90;7.30;97304.00;;;;5053382;28;20184;-89
2022/11/27 10:14:24;;;;;;;4.77;3.20;;;7.30;77.10;7.30;97300.00;;;;5053323;28;20231;-89
2022/11/27 10:17:02;;;;;;;4.20;3.50;;;7.40;77.20;7.30;97305.00;;;;5053337;28;20217;-89
2022/11/27 10:19:39;;;;;;;3.53;3.33;;;7.40;77.20;7.30;97296.00;;;;5053805;28;20258;-89
2022/11/27 10:22:18;;;;;;;3.70;3.40;;;7.40;77.00;7.30;97291.00;;;;5053629;28;20224;-89
2022/11/27 10:24:58;;;;;;;3.90;3.50;;;7.40;77.10;7.30;97290.00;;;;5053862;28;20276;-89
2022/11/27 10:27:37;;;;;;;3.77;3.47;;;7.40;77.40;7.40;97289.00;;;;5052878;28;20220;-88
2022/11/27 10:30:16;;;;;;;3.93;3.63;;;7.40;77.50;7.40;97293.00;;;;5053515;28;20254;-89
2022/11/27 10:32:47;;;;;;;3.90;3.60;;;7.50;77.50;7.50;97281.00;;;;5053343;28;20291;-89
2022/11/27 10:35:18;;;;;;;4.57;3.97;;;7.50;77.60;7.50;97284.00;;;;5053081;28;20200;-89
2022/11/27 10:37:52;;;;;;;3.93;3.30;;;7.50;77.50;7.50;97271.00;;;;5053015;28;20625;-89
2022/11/27 10:40:52;;;;;;;4.00;3.70;;;7.50;77.30;7.60;97274.00;;;;5052854;28;20295;-89
2022/11/27 10:43:22;;;;;;;3.90;3.60;;;7.50;77.30;7.60;97266.00;;;;5048769;28;20246;-88
2022/11/27 10:45:56;;;;;;;5.53;3.93;;;7.60;77.40;7.70;97269.00;;;;5052950;28;20671;-89
2022/11/27 10:48:24;;;;;;;5.00;4.53;;;7.60;77.50;7.70;97264.00;;;;5050558;28;20191;-91
2022/11/27 10:50:52;;;;;;;4.80;4.00;;;7.70;77.60;7.70;97257.00;;;;5050859;28;20192;-90
2022/11/27 10:53:27;;;;;;;3.90;3.60;;;7.70;77.60;7.80;97243.00;;;;5052581;28;20240;-89
2022/11/27 10:56:44;;;;;;;4.03;3.70;;;7.70;77.60;7.80;97235.00;;;;5051583;28;20255;-89
2022/11/27 10:59:18;;;;;;;4.00;3.63;;;7.80;77.60;7.80;97231.00;;;;5049736;28;20228;-87
2022/11/27 11:01:49;;;;;;;6.73;4.00;;;7.80;77.70;7.80;97233.00;;;;5043241;28;20296;-88
2022/11/27 11:04:22;;;;;;;3.87;3.57;;;7.80;77.70;7.90;97231.00;;;;5052057;28;20192;-90
2022/11/27 11:06:50;;;;;;;5.40;4.03;;;7.90;77.80;7.90;97233.00;;;;5052594;28;20228;-86
2022/11/27 11:09:22;;;;;;;4.53;4.13;;;7.90;77.70;7.90;97235.00;;;;5047398;28;20201;-85
2022/11/27 11:11:50;;;;;;;4.33;3.93;;;7.90;77.80;8.00;97236.00;;;;5049333;28;20212;-86
2022/11/27 11:14:20;;;;;;;4.30;3.90;;;8.00;77.80;8.00;97247.00;;;;5052334;28;20239;-86
2022/11/27 11:16:50;;;;;;;3.97;3.67;;;8.00;77.60;8.00;97247.00;;;;5051389;28;20277;-85
2022/11/27 11:19:28;;;;;;;3.87;3.47;;;8.00;77.70;8.10;97242.00;;;;5050869;28;20209;-85
2022/11/27 11:21:56;;;;;;;4.50;4.10;;;8.10;77.80;8.10;97245.00;;;;5047205;28;20239;-85